createdAt,value
2023-04-18T00:00:09.439Z,100895.59
2023-04-18T00:00:40.905Z,100892.94
2023-04-18T00:01:12.457Z,100900.94
2023-04-18T00:01:43.980Z,100891.22
2023-04-18T00:02:15.614Z,100898.28
2023-04-18T00:02:47.282Z,100900.09
2023-04-18T00:03:19.096Z,100892.22
2023-04-18T00:03:51.041Z,100888.69
2023-04-18T00:04:22.841Z,100899.22
2023-04-18T00:04:54.602Z,100897.53
2023-04-18T00:05:26.165Z,100900.09
2023-04-18T00:05:57.722Z,100893.06
2023-04-18T00:06:29.218Z,100895.59
2023-04-18T00:07:00.729Z,100891.22
2023-04-18T00:07:32.369Z,100895.59
2023-04-18T00:08:03.875Z,100893.06
2023-04-18T00:08:35.303Z,100889.56
2023-04-18T00:09:06.792Z,100893.06
2023-04-18T00:09:38.373Z,100893.06
2023-04-18T00:10:09.907Z,100904.56
2023-04-18T00:10:41.389Z,100898.38
2023-04-18T00:11:12.847Z,100898.38
2023-04-18T00:11:44.316Z,100896.56
2023-04-18T00:12:15.830Z,100893.91
2023-04-18T00:12:47.403Z,100893.91
2023-04-18T00:13:18.842Z,100899.22
2023-04-18T00:13:50.340Z,100894.88
2023-04-18T00:14:21.872Z,100897.53
2023-04-18T00:14:53.381Z,100900.22
2023-04-18T00:15:24.930Z,100896.56
2023-04-18T00:15:56.454Z,100899.22
2023-04-18T00:16:27.931Z,100898.38
2023-04-18T00:16:59.459Z,100897.53
2023-04-18T00:17:31.028Z,100902.88
2023-04-18T00:18:02.617Z,100900.22
2023-04-18T00:18:34.237Z,100899.22
2023-04-18T00:19:05.904Z,100902.75
2023-04-18T00:19:37.364Z,100897.44
2023-04-18T00:20:09.120Z,100897.53
2023-04-18T00:20:40.677Z,100900.22
2023-04-18T00:21:12.230Z,100901.16
2023-04-18T00:21:43.752Z,100893.06
2023-04-18T00:22:15.271Z,100900.22
2023-04-18T00:22:46.829Z,100900.22
2023-04-18T00:23:18.359Z,100902.00
2023-04-18T00:23:49.827Z,100894.88
2023-04-18T00:24:21.368Z,100905.53
2023-04-18T00:24:52.858Z,100903.72
2023-04-18T00:25:24.444Z,100902.88
2023-04-18T00:25:55.860Z,100902.88
2023-04-18T00:26:27.400Z,100901.03
2023-04-18T00:26:58.847Z,100900.22
2023-04-18T00:27:30.344Z,100896.66
2023-04-18T00:28:01.875Z,100897.53
2023-04-18T00:28:33.502Z,100902.88
2023-04-18T00:29:05.027Z,100904.56
2023-04-18T00:29:36.472Z,100909.03
2023-04-18T00:30:08.557Z,100902.75
2023-04-18T00:30:40.104Z,100899.22
2023-04-18T00:31:11.672Z,100907.22
2023-04-18T00:31:43.163Z,100903.72
2023-04-18T00:32:14.722Z,100902.75
2023-04-18T00:32:46.254Z,100897.53
2023-04-18T00:33:17.867Z,100909.03
2023-04-18T00:33:49.311Z,100902.75
2023-04-18T00:34:20.768Z,100900.22
2023-04-18T00:34:52.168Z,100893.06
2023-04-18T00:35:23.677Z,100900.22
2023-04-18T00:35:55.363Z,100894.88
2023-04-18T00:36:26.855Z,100902.88
2023-04-18T00:36:58.285Z,100903.72
2023-04-18T00:37:29.744Z,100903.72
2023-04-18T00:38:01.291Z,100899.22
2023-04-18T00:38:32.759Z,100899.22
2023-04-18T00:39:04.321Z,100899.22
2023-04-18T00:39:35.842Z,100900.22
2023-04-18T00:40:07.636Z,100908.19
2023-04-18T00:40:39.877Z,100902.88
2023-04-18T00:41:11.411Z,100903.72
2023-04-18T00:41:42.852Z,100902.88
2023-04-18T00:42:14.252Z,100901.88
2023-04-18T00:42:45.676Z,100902.88
2023-04-18T00:43:17.201Z,100909.03
2023-04-18T00:43:48.712Z,100901.88
2023-04-18T00:44:20.199Z,100908.19
2023-04-18T00:44:51.666Z,100898.38
2023-04-18T00:45:23.124Z,100892.22
2023-04-18T00:45:54.901Z,100902.88
2023-04-18T00:46:26.459Z,100902.88
2023-04-18T00:46:58.112Z,100899.22
2023-04-18T00:47:29.632Z,100902.88
2023-04-18T00:48:01.198Z,100905.53
2023-04-18T00:48:32.720Z,100908.19
2023-04-18T00:49:04.162Z,100897.53
2023-04-18T00:49:35.655Z,100902.88
2023-04-18T00:50:07.389Z,100897.53
2023-04-18T00:50:38.881Z,100900.22
2023-04-18T00:51:10.379Z,100901.88
2023-04-18T00:51:41.918Z,100900.22
2023-04-18T00:52:13.415Z,100904.56
2023-04-18T00:52:45.011Z,100907.31
2023-04-18T00:53:16.529Z,100895.72
2023-04-18T00:53:48.051Z,100908.19
2023-04-18T00:54:19.499Z,100900.22
2023-04-18T00:54:50.962Z,100894.88
2023-04-18T00:55:22.467Z,100894.00
2023-04-18T00:55:53.920Z,100899.22
2023-04-18T00:56:25.394Z,100902.88
2023-04-18T00:56:56.976Z,100897.53
2023-04-18T00:57:28.462Z,100900.22
2023-04-18T00:57:59.930Z,100893.16
2023-04-18T00:58:31.570Z,100891.34
2023-04-18T00:59:03.019Z,100895.72
2023-04-18T00:59:34.731Z,100896.56
2023-04-18T01:00:06.399Z,100893.91
2023-04-18T01:00:37.853Z,100899.22
2023-04-18T01:01:09.437Z,100896.56
2023-04-18T01:01:41.059Z,100897.53
2023-04-18T01:02:12.642Z,100898.38
2023-04-18T01:02:44.369Z,100901.16
2023-04-18T01:03:16.188Z,100898.50
2023-04-18T01:03:47.880Z,100897.53
2023-04-18T01:04:19.752Z,100902.88
2023-04-18T01:04:51.643Z,100902.75
2023-04-18T01:05:23.200Z,100895.72
2023-04-18T01:05:54.851Z,100899.22
2023-04-18T01:06:26.527Z,100899.22
2023-04-18T01:06:58.071Z,100904.56
2023-04-18T01:07:32.774Z,100900.09
2023-04-18T01:08:04.261Z,100889.44
2023-04-18T01:08:35.769Z,100892.94
2023-04-18T01:09:07.235Z,100897.44
2023-04-18T01:09:38.859Z,100894.75
2023-04-18T01:10:10.465Z,100891.22
2023-04-18T01:10:41.938Z,100891.22
2023-04-18T01:11:13.411Z,100894.75
2023-04-18T01:11:44.926Z,100895.59
2023-04-18T01:12:16.397Z,100890.41
2023-04-18T01:12:47.980Z,100895.72
2023-04-18T01:13:20.012Z,100893.78
2023-04-18T01:14:01.098Z,100897.44
2023-04-18T01:14:32.585Z,100888.56
2023-04-18T01:15:07.078Z,100898.28
2023-04-18T01:15:41.723Z,100894.75
2023-04-18T01:16:13.273Z,100892.09
2023-04-18T01:16:44.759Z,100894.75
2023-04-18T01:17:16.196Z,100890.28
2023-04-18T01:17:47.744Z,100884.13
2023-04-18T01:18:19.330Z,100887.63
2023-04-18T01:18:50.841Z,100895.59
2023-04-18T01:19:22.358Z,100890.28
2023-04-18T01:19:53.892Z,100889.44
2023-04-18T01:20:25.366Z,100888.56
2023-04-18T01:20:56.845Z,100886.78
2023-04-18T01:21:28.365Z,100889.44
2023-04-18T01:21:59.810Z,100887.63
2023-04-18T01:22:31.681Z,100893.91
2023-04-18T01:23:03.291Z,100892.94
2023-04-18T01:23:34.783Z,100889.44
2023-04-18T01:24:16.233Z,100893.78
2023-04-18T01:24:47.919Z,100887.63
2023-04-18T01:25:19.402Z,100888.56
2023-04-18T01:25:50.876Z,100892.94
2023-04-18T01:26:22.335Z,100889.44
2023-04-18T01:26:53.796Z,100887.63
2023-04-18T01:27:25.307Z,100890.28
2023-04-18T01:27:57.061Z,100887.63
2023-04-18T01:28:28.536Z,100884.13
2023-04-18T01:29:00.017Z,100891.22
2023-04-18T01:29:31.462Z,100885.91
2023-04-18T01:30:02.927Z,100880.56
2023-04-18T01:30:34.343Z,100887.63
2023-04-18T01:31:05.810Z,100880.56
2023-04-18T01:31:37.508Z,100883.25
2023-04-18T01:32:09.083Z,100877.91
2023-04-18T01:32:40.746Z,100872.59
2023-04-18T01:33:12.218Z,100881.31
2023-04-18T01:33:43.724Z,100871.63
2023-04-18T01:34:15.486Z,100875.97
2023-04-18T01:34:47.236Z,100876.13
2023-04-18T01:35:18.822Z,100877.06
2023-04-18T01:35:50.319Z,100879.75
2023-04-18T01:36:21.733Z,100876.22
2023-04-18T01:36:53.163Z,100874.31
2023-04-18T01:37:24.666Z,100884.94
2023-04-18T01:37:56.237Z,100880.56
2023-04-18T01:38:27.773Z,100882.28
2023-04-18T01:38:59.489Z,100874.31
2023-04-18T01:39:31.030Z,100870.78
2023-04-18T01:40:02.527Z,100867.25
2023-04-18T01:40:33.960Z,100878.78
2023-04-18T01:41:05.470Z,100872.59
2023-04-18T01:41:36.967Z,100873.47
2023-04-18T01:42:08.481Z,100875.25
2023-04-18T01:42:39.985Z,100877.91
2023-04-18T01:43:11.504Z,100878.78
2023-04-18T01:43:43.113Z,100884.94
2023-04-18T01:44:14.780Z,100884.94
2023-04-18T01:44:46.389Z,100886.63
2023-04-18T01:45:18.817Z,100881.44
2023-04-18T01:45:50.301Z,100882.28
2023-04-18T01:46:21.893Z,100886.63
2023-04-18T01:46:53.422Z,100882.28
2023-04-18T01:47:25.007Z,100871.63
2023-04-18T01:47:56.638Z,100880.56
2023-04-18T01:48:28.355Z,100880.47
2023-04-18T01:48:59.987Z,100875.13
2023-04-18T01:49:31.446Z,100882.28
2023-04-18T01:50:03.345Z,100871.63
2023-04-18T01:50:34.861Z,100874.31
2023-04-18T01:51:06.477Z,100881.44
2023-04-18T01:51:37.959Z,100874.31
2023-04-18T01:52:09.469Z,100871.75
2023-04-18T01:52:40.960Z,100877.91
2023-04-18T01:53:12.407Z,100871.75
2023-04-18T01:53:43.844Z,100869.94
2023-04-18T01:54:15.679Z,100881.44
2023-04-18T01:54:47.339Z,100870.91
2023-04-18T01:55:18.916Z,100871.63
2023-04-18T01:55:50.422Z,100876.97
2023-04-18T01:56:21.931Z,100874.31
2023-04-18T01:56:53.485Z,100880.56
2023-04-18T01:57:25.002Z,100868.97
2023-04-18T01:57:56.582Z,100872.59
2023-04-18T01:58:28.071Z,100870.78
2023-04-18T01:58:59.823Z,100873.47
2023-04-18T01:59:31.388Z,100868.13
2023-04-18T02:00:05.910Z,100870.78
2023-04-18T02:00:37.536Z,100870.78
2023-04-18T02:01:09.191Z,100867.25
2023-04-18T02:01:40.697Z,100868.97
2023-04-18T02:02:12.185Z,100877.81
2023-04-18T02:02:44.027Z,100868.97
2023-04-18T02:03:15.943Z,100871.53
2023-04-18T02:03:47.691Z,100870.66
2023-04-18T02:04:19.299Z,100870.66
2023-04-18T02:04:50.903Z,100869.81
2023-04-18T02:05:22.405Z,100868.97
2023-04-18T02:05:53.901Z,100863.66
2023-04-18T02:06:25.432Z,100868.97
2023-04-18T02:06:56.968Z,100868.97
2023-04-18T02:07:28.432Z,100868.13
2023-04-18T02:07:59.933Z,100871.63
2023-04-18T02:08:31.505Z,100865.47
2023-04-18T02:09:02.981Z,100865.31
2023-04-18T02:09:34.488Z,100863.66
2023-04-18T02:10:06.312Z,100868.13
2023-04-18T02:10:37.964Z,100875.97
2023-04-18T02:11:09.447Z,100868.97
2023-04-18T02:11:40.924Z,100871.63
2023-04-18T02:12:12.400Z,100872.47
2023-04-18T02:12:43.857Z,100868.97
2023-04-18T02:13:15.373Z,100868.97
2023-04-18T02:13:46.873Z,100866.31
2023-04-18T02:14:18.360Z,100871.63
2023-04-18T02:14:52.684Z,100871.63
2023-04-18T02:15:24.321Z,100862.81
2023-04-18T02:15:55.799Z,100866.31
2023-04-18T02:16:27.407Z,100868.97
2023-04-18T02:16:59.140Z,100867.25
2023-04-18T02:17:30.759Z,100864.59
2023-04-18T02:18:02.357Z,100869.94
2023-04-18T02:18:33.846Z,100863.66
2023-04-18T02:19:05.351Z,100867.25
2023-04-18T02:19:36.846Z,100866.41
2023-04-18T02:20:08.526Z,100868.13
2023-04-18T02:20:40.185Z,100868.13
2023-04-18T02:21:11.748Z,100868.97
2023-04-18T02:21:43.230Z,100868.97
2023-04-18T02:22:14.806Z,100861.94
2023-04-18T02:22:46.705Z,100866.31
2023-04-18T02:23:18.518Z,100866.31
2023-04-18T02:23:49.945Z,100868.97
2023-04-18T02:24:21.383Z,100870.78
2023-04-18T02:24:53.071Z,100863.66
2023-04-18T02:25:24.759Z,100864.47
2023-04-18T02:25:56.268Z,100868.97
2023-04-18T02:26:27.804Z,100866.31
2023-04-18T02:26:59.291Z,100868.00
2023-04-18T02:27:30.659Z,100870.66
2023-04-18T02:28:02.125Z,100868.00
2023-04-18T02:28:33.682Z,100864.47
2023-04-18T02:29:05.212Z,100863.66
2023-04-18T02:29:36.728Z,100867.16
2023-04-18T02:30:08.474Z,100860.97
2023-04-18T02:30:40.076Z,100866.31
2023-04-18T02:31:11.657Z,100868.13
2023-04-18T02:31:43.375Z,100868.13
2023-04-18T02:32:14.925Z,100861.81
2023-04-18T02:33:28.879Z,100867.25
2023-04-18T02:34:00.319Z,100867.25
2023-04-18T02:34:31.867Z,100866.31
2023-04-18T02:35:03.367Z,100867.16
2023-04-18T02:35:34.825Z,100858.31
2023-04-18T02:36:06.443Z,100860.97
2023-04-18T02:36:37.829Z,100868.84
2023-04-18T02:37:09.281Z,100869.81
2023-04-18T02:37:40.659Z,100868.00
2023-04-18T02:38:12.016Z,100862.81
2023-04-18T02:38:43.465Z,100868.97
2023-04-18T02:39:14.832Z,100863.66
2023-04-18T02:39:46.222Z,100866.31
2023-04-18T02:40:17.910Z,100863.66
2023-04-18T02:40:49.340Z,100862.66
2023-04-18T02:41:20.702Z,100868.13
2023-04-18T02:41:52.076Z,100863.66
2023-04-18T02:42:23.475Z,100874.31
2023-04-18T02:42:54.858Z,100868.97
2023-04-18T02:43:26.288Z,100867.16
2023-04-18T02:43:57.950Z,100861.94
2023-04-18T02:44:29.362Z,100870.66
2023-04-18T02:45:00.721Z,100862.66
2023-04-18T02:45:32.119Z,100868.97
2023-04-18T02:46:03.646Z,100871.63
2023-04-18T02:46:35.070Z,100868.00
2023-04-18T02:47:06.588Z,100874.31
2023-04-18T02:47:51.297Z,100870.66
2023-04-18T02:48:26.459Z,100862.66
2023-04-18T02:48:57.845Z,100874.31
2023-04-18T02:49:29.229Z,100863.66
2023-04-18T02:50:00.629Z,100868.97
2023-04-18T02:50:32.120Z,100870.66
2023-04-18T02:51:06.812Z,100870.66
2023-04-18T02:51:38.351Z,100868.00
2023-04-18T02:52:09.743Z,100871.63
2023-04-18T02:52:41.193Z,100874.31
2023-04-18T02:53:12.574Z,100875.97
2023-04-18T02:53:43.935Z,100872.47
2023-04-18T02:54:15.516Z,100874.31
2023-04-18T02:54:47.143Z,100875.25
2023-04-18T02:55:18.678Z,100874.31
2023-04-18T02:55:50.055Z,100877.91
2023-04-18T02:56:21.491Z,100878.78
2023-04-18T02:56:53.597Z,100871.63
2023-04-18T02:57:25.015Z,100868.97
2023-04-18T02:57:56.417Z,100870.66
2023-04-18T02:58:27.790Z,100869.81
2023-04-18T02:58:59.190Z,100869.81
2023-04-18T02:59:30.599Z,100868.97
2023-04-18T03:00:02.085Z,100866.31
2023-04-18T03:00:33.866Z,100862.91
2023-04-18T03:01:05.289Z,100868.25
2023-04-18T03:01:36.826Z,100862.91
2023-04-18T03:02:08.360Z,100870.91
2023-04-18T03:02:39.862Z,100861.19
2023-04-18T03:03:11.436Z,100868.25
2023-04-18T03:03:42.862Z,100863.88
2023-04-18T03:04:14.470Z,100869.19
2023-04-18T03:04:46.096Z,100870.03
2023-04-18T03:05:17.561Z,100873.56
2023-04-18T03:05:48.943Z,100866.53
2023-04-18T03:06:20.332Z,100863.88
2023-04-18T03:06:51.747Z,100869.19
2023-04-18T03:07:23.150Z,100866.53
2023-04-18T03:07:54.599Z,100877.19
2023-04-18T03:08:25.961Z,100874.53
2023-04-18T03:08:57.335Z,100869.19
2023-04-18T03:09:28.739Z,100871.84
2023-04-18T03:10:00.167Z,100871.84
2023-04-18T03:10:31.545Z,100871.84
2023-04-18T03:11:02.918Z,100876.34
2023-04-18T03:11:34.284Z,100871.03
2023-04-18T03:12:05.723Z,100885.19
2023-04-18T03:12:37.164Z,100865.81
2023-04-18T03:13:08.485Z,100873.78
2023-04-18T03:13:39.861Z,100880.81
2023-04-18T03:14:11.639Z,100878.13
2023-04-18T03:14:43.124Z,100873.78
2023-04-18T03:15:14.616Z,100879.00
2023-04-18T03:15:46.047Z,100870.16
2023-04-18T03:16:17.598Z,100871.13
2023-04-18T03:16:49.040Z,100875.47
2023-04-18T03:17:20.557Z,100877.28
2023-04-18T03:17:52.149Z,100875.47
2023-04-18T03:18:23.630Z,100883.47
2023-04-18T03:18:55.004Z,100877.19
2023-04-18T03:19:26.410Z,100882.50
2023-04-18T03:19:57.854Z,100877.19
2023-04-18T03:20:29.230Z,100873.69
2023-04-18T03:21:00.661Z,100879.00
2023-04-18T03:21:32.025Z,100879.13
2023-04-18T03:22:03.434Z,100875.47
2023-04-18T03:22:34.847Z,100876.47
2023-04-18T03:23:06.263Z,100881.78
2023-04-18T03:23:37.737Z,100880.81
2023-04-18T03:24:10.820Z,100886.13
2023-04-18T03:24:43.401Z,100887.13
2023-04-18T03:25:14.838Z,100879.00
2023-04-18T03:25:46.345Z,100885.28
2023-04-18T03:26:17.676Z,100883.47
2023-04-18T03:26:49.126Z,100890.50
2023-04-18T03:27:20.553Z,100883.47
2023-04-18T03:27:51.966Z,100883.47
2023-04-18T03:28:23.315Z,100888.78
2023-04-18T03:28:54.770Z,100881.78
2023-04-18T03:29:26.200Z,100880.81
2023-04-18T03:29:57.620Z,100888.78
2023-04-18T03:30:28.997Z,100884.44
2023-04-18T03:31:00.474Z,100890.63
2023-04-18T03:31:31.970Z,100889.78
2023-04-18T03:32:03.624Z,100889.78
2023-04-18T03:32:35.090Z,100888.78
2023-04-18T03:33:06.512Z,100885.28
2023-04-18T03:33:37.968Z,100887.13
2023-04-18T03:34:09.365Z,100888.91
2023-04-18T03:34:40.807Z,100889.78
2023-04-18T03:35:12.240Z,100885.28
2023-04-18T03:35:43.747Z,100891.56
2023-04-18T03:36:15.411Z,100887.13
2023-04-18T03:36:48.235Z,100890.72
2023-04-18T03:37:19.746Z,100893.38
2023-04-18T03:37:51.141Z,100897.75
2023-04-18T03:38:22.653Z,100895.94
2023-04-18T03:38:54.500Z,100892.44
2023-04-18T03:39:25.964Z,100896.88
2023-04-18T03:39:57.360Z,100892.56
2023-04-18T03:40:28.772Z,100896.88
2023-04-18T03:41:00.084Z,100897.75
2023-04-18T03:41:31.485Z,100894.13
2023-04-18T03:42:02.983Z,100896.06
2023-04-18T03:42:34.409Z,100898.59
2023-04-18T03:43:05.813Z,100889.78
2023-04-18T03:43:37.316Z,100889.78
2023-04-18T03:44:08.727Z,100887.94
2023-04-18T03:44:40.095Z,100892.44
2023-04-18T03:45:11.471Z,100897.75
2023-04-18T03:45:42.858Z,100897.75
2023-04-18T03:46:14.370Z,100893.38
2023-04-18T03:46:45.880Z,100898.72
2023-04-18T03:47:17.316Z,100900.44
2023-04-18T03:47:48.728Z,100892.44
2023-04-18T03:48:20.258Z,100896.88
2023-04-18T03:48:51.724Z,100899.56
2023-04-18T03:49:23.174Z,100895.09
2023-04-18T03:49:54.673Z,100890.72
2023-04-18T03:50:26.040Z,100895.94
2023-04-18T03:50:57.514Z,100897.75
2023-04-18T03:51:32.185Z,100898.59
2023-04-18T03:52:03.610Z,100892.56
2023-04-18T03:52:35.036Z,100902.22
2023-04-18T03:53:06.454Z,100900.53
2023-04-18T03:53:37.909Z,100900.44
2023-04-18T03:54:09.315Z,100899.56
2023-04-18T03:54:40.711Z,100899.56
2023-04-18T03:55:12.141Z,100906.72
2023-04-18T03:55:43.614Z,100896.06
2023-04-18T03:56:15.003Z,100901.38
2023-04-18T03:56:46.485Z,100902.22
2023-04-18T03:57:17.909Z,100907.53
2023-04-18T03:57:49.326Z,100897.88
2023-04-18T03:58:22.088Z,100896.06
2023-04-18T03:58:54.673Z,100906.72
2023-04-18T03:59:26.755Z,100897.75
2023-04-18T03:59:58.195Z,100899.56
2023-04-18T04:00:29.616Z,100904.88
2023-04-18T04:01:01.068Z,100911.19
2023-04-18T04:01:32.596Z,100903.09
2023-04-18T04:02:04.115Z,100900.53
2023-04-18T04:02:35.684Z,100901.38
2023-04-18T04:03:07.255Z,100906.72
2023-04-18T04:03:38.873Z,100905.75
2023-04-18T04:04:10.511Z,100904.88
2023-04-18T04:04:42.134Z,100903.09
2023-04-18T04:05:13.609Z,100906.72
2023-04-18T04:05:45.040Z,100902.22
2023-04-18T04:06:16.461Z,100905.75
2023-04-18T04:06:47.871Z,100905.75
2023-04-18T04:07:19.251Z,100899.56
2023-04-18T04:07:50.650Z,100911.09
2023-04-18T04:08:22.035Z,100906.72
2023-04-18T04:08:53.413Z,100905.75
2023-04-18T04:09:24.836Z,100898.59
2023-04-18T04:09:56.262Z,100903.09
2023-04-18T04:10:27.713Z,100902.22
2023-04-18T04:10:59.080Z,100903.94
2023-04-18T04:11:30.603Z,100903.09
2023-04-18T04:12:01.970Z,100895.09
2023-04-18T04:12:33.395Z,100906.59
2023-04-18T04:13:04.829Z,100902.22
2023-04-18T04:13:36.247Z,100904.88
2023-04-18T04:14:07.671Z,100908.41
2023-04-18T04:14:39.098Z,100908.41
2023-04-18T04:15:10.896Z,100907.53
2023-04-18T04:15:42.255Z,100906.72
2023-04-18T04:16:13.706Z,100902.22
2023-04-18T04:16:45.270Z,100900.44
2023-04-18T04:17:16.653Z,100901.38
2023-04-18T04:17:48.058Z,100901.38
2023-04-18T04:18:19.453Z,100906.72
2023-04-18T04:18:50.827Z,100902.22
2023-04-18T04:19:22.236Z,100902.22
2023-04-18T04:19:53.692Z,100901.38
2023-04-18T04:20:25.118Z,100903.19
2023-04-18T04:20:59.282Z,100906.72
2023-04-18T04:21:30.680Z,100904.88
2023-04-18T04:22:02.091Z,100899.66
2023-04-18T04:22:33.504Z,100907.53
2023-04-18T04:23:04.855Z,100911.19
2023-04-18T04:23:36.198Z,100907.53
2023-04-18T04:24:07.683Z,100920.03
2023-04-18T04:24:39.102Z,100908.53
2023-04-18T04:25:10.522Z,100910.31
2023-04-18T04:25:41.988Z,100910.31
2023-04-18T04:26:13.380Z,100906.72
2023-04-18T04:26:44.741Z,100913.75
2023-04-18T04:27:16.181Z,100915.66
2023-04-18T04:27:47.569Z,100917.34
2023-04-18T04:28:22.160Z,100912.03
2023-04-18T04:28:53.563Z,100921.84
2023-04-18T04:29:24.964Z,100922.69
2023-04-18T04:29:56.586Z,100913.84
2023-04-18T04:30:28.056Z,100913.84
2023-04-18T04:30:59.445Z,100918.19
2023-04-18T04:31:30.862Z,100914.69
2023-04-18T04:32:02.350Z,100917.34
2023-04-18T04:32:33.821Z,100916.53
2023-04-18T04:33:05.275Z,100916.53
2023-04-18T04:33:36.855Z,100917.34
2023-04-18T04:34:08.388Z,100913.84
2023-04-18T04:34:39.786Z,100912.03
2023-04-18T04:35:11.158Z,100916.53
2023-04-18T04:35:43.121Z,100919.06
2023-04-18T04:36:14.558Z,100921.72
2023-04-18T04:36:45.994Z,100914.59
2023-04-18T04:37:17.365Z,100917.34
2023-04-18T04:37:48.735Z,100917.34
2023-04-18T04:38:20.196Z,100917.34
2023-04-18T04:38:51.631Z,100913.75
2023-04-18T04:39:23.044Z,100917.34
2023-04-18T04:39:54.419Z,100916.53
2023-04-18T04:40:25.860Z,100911.19
2023-04-18T04:40:57.305Z,100915.66
2023-04-18T04:41:28.690Z,100912.03
2023-04-18T04:42:00.175Z,100922.69
2023-04-18T04:42:31.606Z,100918.19
2023-04-18T04:43:03.054Z,100920.88
2023-04-18T04:43:34.446Z,100920.03
2023-04-18T04:44:06.100Z,100919.19
2023-04-18T04:44:37.780Z,100920.97
2023-04-18T04:45:09.527Z,100920.97
2023-04-18T04:45:41.200Z,100925.34
2023-04-18T04:46:12.743Z,100921.84
2023-04-18T04:46:44.205Z,100925.34
2023-04-18T04:47:15.566Z,100916.53
2023-04-18T04:47:47.118Z,100921.84
2023-04-18T04:48:18.516Z,100920.03
2023-04-18T04:48:49.870Z,100919.19
2023-04-18T04:49:21.236Z,100919.19
2023-04-18T04:49:52.606Z,100920.97
2023-04-18T04:50:24.048Z,100921.84
2023-04-18T04:50:56.392Z,100920.97
2023-04-18T04:51:27.900Z,100922.69
2023-04-18T04:52:01.403Z,100914.69
2023-04-18T04:52:33.426Z,100918.19
2023-04-18T04:53:05.270Z,100925.34
2023-04-18T04:53:36.633Z,100922.69
2023-04-18T04:54:08.278Z,100915.66
2023-04-18T04:54:39.711Z,100917.34
2023-04-18T04:55:11.078Z,100917.34
2023-04-18T04:55:42.555Z,100920.03
2023-04-18T04:56:14.039Z,100920.97
2023-04-18T04:56:45.570Z,100917.34
2023-04-18T04:57:16.997Z,100920.97
2023-04-18T04:57:48.485Z,100915.66
2023-04-18T04:58:19.861Z,100926.31
2023-04-18T04:58:51.271Z,100915.66
2023-04-18T04:59:22.719Z,100923.63
2023-04-18T04:59:54.148Z,100921.84
2023-04-18T05:00:25.617Z,100920.97
2023-04-18T05:00:57.204Z,100918.31
2023-04-18T05:01:28.716Z,100924.50
2023-04-18T05:02:00.244Z,100921.97
2023-04-18T05:02:31.765Z,100920.97
2023-04-18T05:03:03.463Z,100922.78
2023-04-18T05:03:35.491Z,100921.84
2023-04-18T05:04:07.241Z,100927.16
2023-04-18T05:04:38.866Z,100926.31
2023-04-18T05:05:10.511Z,100929.84
2023-04-18T05:05:41.938Z,100926.31
2023-04-18T05:06:13.404Z,100929.94
2023-04-18T05:06:44.834Z,100929.84
2023-04-18T05:07:16.310Z,100928.13
2023-04-18T05:07:47.765Z,100926.31
2023-04-18T05:08:19.133Z,100926.31
2023-04-18T05:08:50.635Z,100926.31
2023-04-18T05:09:22.089Z,100932.50
2023-04-18T05:09:53.570Z,100925.47
2023-04-18T05:10:25.003Z,100930.78
2023-04-18T05:10:56.434Z,100927.16
2023-04-18T05:11:27.936Z,100929.94
2023-04-18T05:11:59.365Z,100931.63
2023-04-18T05:12:30.931Z,100928.84
2023-04-18T05:13:03.012Z,100932.50
2023-04-18T05:13:34.378Z,100934.28
2023-04-18T05:14:05.752Z,100931.63
2023-04-18T05:14:37.183Z,100929.84
2023-04-18T05:15:08.758Z,100936.13
2023-04-18T05:15:40.206Z,100930.78
2023-04-18T05:16:11.734Z,100931.63
2023-04-18T05:16:43.339Z,100928.00
2023-04-18T05:17:14.802Z,100928.00
2023-04-18T05:17:46.228Z,100930.69
2023-04-18T05:18:17.852Z,100928.00
2023-04-18T05:18:49.318Z,100934.28
2023-04-18T05:19:20.764Z,100932.50
2023-04-18T05:19:52.228Z,100938.66
2023-04-18T05:20:23.833Z,100927.16
2023-04-18T05:20:55.244Z,100927.16
2023-04-18T05:21:26.669Z,100922.69
2023-04-18T05:21:58.050Z,100933.34
2023-04-18T05:22:29.415Z,100928.00
2023-04-18T05:23:00.760Z,100926.31
2023-04-18T05:23:32.245Z,100933.34
2023-04-18T05:24:03.598Z,100928.00
2023-04-18T05:24:35.064Z,100933.34
2023-04-18T05:25:06.815Z,100931.63
2023-04-18T05:25:38.221Z,100928.84
2023-04-18T05:26:09.668Z,100932.50
2023-04-18T05:26:41.068Z,100928.97
2023-04-18T05:27:12.792Z,100931.63
2023-04-18T05:27:44.836Z,100927.16
2023-04-18T05:28:16.360Z,100935.16
2023-04-18T05:28:47.866Z,100927.16
2023-04-18T05:29:19.231Z,100938.66
2023-04-18T05:29:50.636Z,100936.00
2023-04-18T05:30:22.122Z,100933.34
2023-04-18T05:30:53.593Z,100938.66
2023-04-18T05:31:25.090Z,100941.34
2023-04-18T05:31:56.525Z,100938.66
2023-04-18T05:32:27.928Z,100933.44
2023-04-18T05:32:59.383Z,100939.63
2023-04-18T05:33:31.040Z,100936.94
2023-04-18T05:34:02.473Z,100942.28
2023-04-18T05:34:33.870Z,100944.94
2023-04-18T05:35:06.289Z,100941.34
2023-04-18T05:35:37.728Z,100942.28
2023-04-18T05:36:09.149Z,100944.94
2023-04-18T05:36:40.553Z,100940.50
2023-04-18T05:37:11.961Z,100947.59
2023-04-18T05:37:43.401Z,100943.16
2023-04-18T05:38:14.863Z,100943.16
2023-04-18T05:38:46.328Z,100942.28
2023-04-18T05:39:17.755Z,100951.16
2023-04-18T05:39:49.137Z,100947.59
2023-04-18T05:40:20.582Z,100941.44
2023-04-18T05:40:52.026Z,100942.16
2023-04-18T05:41:23.468Z,100946.66
2023-04-18T05:41:54.845Z,100948.47
2023-04-18T05:42:26.361Z,100951.97
2023-04-18T05:42:57.786Z,100951.16
2023-04-18T05:43:29.189Z,100954.66
2023-04-18T05:44:05.471Z,100946.66
2023-04-18T05:44:37.401Z,100949.44
2023-04-18T05:45:08.903Z,100955.47
2023-04-18T05:45:40.324Z,100953.81
2023-04-18T05:46:11.734Z,100951.16
2023-04-18T05:46:43.261Z,100959.13
2023-04-18T05:47:14.691Z,100957.31
2023-04-18T05:47:46.075Z,100954.66
2023-04-18T05:48:17.529Z,100948.47
2023-04-18T05:48:48.944Z,100957.41
2023-04-18T05:49:20.457Z,100954.66
2023-04-18T05:49:51.887Z,100959.13
2023-04-18T05:50:23.325Z,100949.31
2023-04-18T05:50:54.704Z,100954.66
2023-04-18T05:51:26.072Z,100950.16
2023-04-18T05:51:57.429Z,100959.97
2023-04-18T05:52:28.827Z,100952.94
2023-04-18T05:53:00.216Z,100948.47
2023-04-18T05:53:31.606Z,100954.66
2023-04-18T05:54:03.008Z,100957.31
2023-04-18T05:54:34.410Z,100959.97
2023-04-18T05:55:06.108Z,100959.13
2023-04-18T05:55:37.514Z,100954.66
2023-04-18T05:56:08.972Z,100954.66
2023-04-18T05:56:40.305Z,100954.66
2023-04-18T05:57:11.691Z,100955.59
2023-04-18T05:57:43.041Z,100953.81
2023-04-18T05:58:14.902Z,100963.59
2023-04-18T05:58:46.346Z,100958.25
2023-04-18T05:59:17.705Z,100955.59
2023-04-18T05:59:49.114Z,100959.13
2023-04-18T06:00:20.570Z,100965.31
2023-04-18T06:00:52.918Z,100961.78
2023-04-18T06:01:24.352Z,100963.47